createdAt,value
2023-04-15T00:00:37.278Z,99197.56
2023-04-15T00:03:41.203Z,99197.62
2023-04-15T00:06:53.600Z,99197.97
2023-04-15T00:09:58.741Z,99199.28
2023-04-15T00:13:04.498Z,99196.62
2023-04-15T00:16:09.022Z,99205.69
2023-04-15T00:19:13.551Z,99201.53
2023-04-15T00:22:20.849Z,99204.75
2023-04-15T00:25:25.689Z,99195.19
2023-04-15T00:28:29.188Z,99200.81
2023-04-15T00:31:33.002Z,99200.06
2023-04-15T00:34:36.921Z,99195.91
2023-04-15T00:37:40.915Z,99185.91
2023-04-15T00:40:45.241Z,99185.81
2023-04-15T00:43:50.597Z,99191.72
2023-04-15T00:46:54.378Z,99190.06
2023-04-15T00:50:00.052Z,99206.22
2023-04-15T00:53:04.051Z,99193.44
2023-04-15T00:56:08.799Z,99190.16
2023-04-15T00:59:13.644Z,99194.63
2023-04-15T01:02:17.949Z,99184.97
2023-04-15T01:05:21.887Z,99184.13
2023-04-15T01:08:31.418Z,99186.31
2023-04-15T01:11:37.592Z,99177.81
2023-04-15T01:14:40.794Z,99179.66
2023-04-15T01:17:45.309Z,99178.59
2023-04-15T01:20:49.727Z,99172.81
2023-04-15T01:23:54.873Z,99177.94
2023-04-15T01:26:58.071Z,99172.63
2023-04-15T01:30:01.501Z,99177.19
2023-04-15T01:33:04.700Z,99177.87
2023-04-15T01:36:09.484Z,99183.56
2023-04-15T01:39:13.497Z,99186.53
2023-04-15T01:42:16.815Z,99191.00
2023-04-15T01:45:19.909Z,99190.06
2023-04-15T01:48:23.910Z,99194.66
2023-04-15T01:51:29.274Z,99189.25
2023-04-15T01:54:32.467Z,99185.66
2023-04-15T01:57:36.074Z,99187.88
2023-04-15T02:00:40.913Z,99193.19
2023-04-15T02:03:44.265Z,99193.53
2023-04-15T02:06:47.835Z,99190.22
2023-04-15T02:09:51.517Z,99195.66
2023-04-15T02:12:54.659Z,99190.69
2023-04-15T02:15:58.317Z,99191.41
2023-04-15T02:19:02.145Z,99198.97
2023-04-15T02:22:05.213Z,99203.56
2023-04-15T02:25:08.931Z,99194.09
2023-04-15T02:28:13.542Z,99198.56
2023-04-15T02:31:16.911Z,99198.25
2023-04-15T02:34:22.088Z,99202.88
2023-04-15T02:37:27.960Z,99203.44
2023-04-15T02:40:32.820Z,99202.97
2023-04-15T02:43:36.812Z,99209.47
2023-04-15T02:46:42.045Z,99200.66
2023-04-15T02:49:46.105Z,99208.19
2023-04-15T02:52:50.686Z,99198.41
2023-04-15T02:55:54.545Z,99199.38
2023-04-15T02:58:59.789Z,99201.72
2023-04-15T03:02:03.698Z,99199.72
2023-04-15T03:05:08.087Z,99193.22
2023-04-15T03:08:11.472Z,99194.41
2023-04-15T03:11:16.630Z,99198.53
2023-04-15T03:14:21.543Z,99197.25
2023-04-15T03:17:25.579Z,99195.25
2023-04-15T03:20:29.518Z,99194.91
2023-04-15T03:23:34.845Z,99195.00
2023-04-15T03:26:37.734Z,99191.69
2023-04-15T03:29:42.889Z,99192.87
2023-04-15T03:32:46.194Z,99198.53
2023-04-15T03:35:48.956Z,99193.00
2023-04-15T03:38:52.656Z,99195.72
2023-04-15T03:41:55.428Z,99198.41
2023-04-15T03:44:58.246Z,99195.81
2023-04-15T03:51:07.890Z,99196.44
2023-04-15T03:54:10.873Z,99200.19
2023-04-15T03:57:15.219Z,99186.50
2023-04-15T04:00:18.914Z,99193.47
2023-04-15T04:03:22.159Z,99189.34
2023-04-15T04:06:25.826Z,99192.63
2023-04-15T04:09:29.863Z,99195.81
2023-04-15T04:12:34.248Z,99190.38
2023-04-15T04:15:38.084Z,99182.16
2023-04-15T04:18:42.477Z,99190.88
2023-04-15T04:21:47.324Z,99189.94
2023-04-15T04:24:51.940Z,99195.38
2023-04-15T04:27:56.215Z,99195.38
2023-04-15T04:31:02.427Z,99191.97
2023-04-15T04:34:06.273Z,99201.53
2023-04-15T04:37:10.085Z,99198.94
2023-04-15T04:40:13.651Z,99199.03
2023-04-15T04:43:16.877Z,99192.44
2023-04-15T04:46:21.525Z,99183.09
2023-04-15T04:49:24.194Z,99191.34
2023-04-15T04:52:27.353Z,99197.81
2023-04-15T04:55:33.453Z,99197.22
2023-04-15T04:58:36.923Z,99202.59
2023-04-15T05:01:40.814Z,99206.78
2023-04-15T05:04:43.841Z,99198.16
2023-04-15T05:07:46.710Z,99199.16
2023-04-15T05:10:51.487Z,99199.63
2023-04-15T05:13:55.164Z,99204.19
2023-04-15T05:17:01.175Z,99200.91
2023-04-15T05:20:05.768Z,99215.09
2023-04-15T05:23:08.568Z,99214.53
2023-04-15T05:26:12.659Z,99209.56
2023-04-15T05:29:18.198Z,99210.50
2023-04-15T05:32:21.599Z,99210.28
2023-04-15T05:35:24.595Z,99212.09
2023-04-15T05:38:27.744Z,99213.84
2023-04-15T05:41:31.291Z,99211.41
2023-04-15T05:44:34.724Z,99223.50
2023-04-15T05:47:38.116Z,99221.00
2023-04-15T05:50:44.296Z,99223.28
2023-04-15T05:53:48.377Z,99231.31
2023-04-15T05:56:52.120Z,99230.03
2023-04-15T05:59:57.741Z,99226.66
2023-04-15T06:03:01.937Z,99220.53
2023-04-15T06:06:05.351Z,99232.03
2023-04-15T06:09:08.984Z,99241.88
2023-04-15T06:12:15.065Z,99238.66
2023-04-15T06:15:20.621Z,99241.97
2023-04-15T06:18:23.776Z,99243.47
2023-04-15T06:21:27.937Z,99249.28
2023-04-15T06:24:32.968Z,99249.13
2023-04-15T06:27:37.903Z,99247.13
2023-04-15T06:30:41.380Z,99250.50
2023-04-15T06:33:48.143Z,99254.94
2023-04-15T06:36:52.200Z,99263.34
2023-04-15T06:39:55.316Z,99266.12
2023-04-15T06:42:59.203Z,99263.38
2023-04-15T06:46:03.543Z,99271.16
2023-04-15T06:49:07.545Z,99274.41
2023-04-15T06:52:12.127Z,99276.22
2023-04-15T06:55:16.087Z,99279.81
2023-04-15T06:58:20.716Z,99277.87
2023-04-15T07:01:24.469Z,99285.94
2023-04-15T07:04:28.379Z,99291.00
2023-04-15T07:07:33.391Z,99297.56
2023-04-15T07:10:36.736Z,99288.91
2023-04-15T07:13:41.300Z,99291.87
2023-04-15T07:16:44.698Z,99286.69
2023-04-15T07:19:50.626Z,99288.12
2023-04-15T07:22:53.913Z,99283.41
2023-04-15T07:25:58.042Z,99294.59
2023-04-15T07:29:00.896Z,99300.97
2023-04-15T07:32:04.317Z,99314.87
2023-04-15T07:35:07.723Z,99303.66
2023-04-15T07:38:13.480Z,99303.09
2023-04-15T07:41:16.668Z,99304.69
2023-04-15T07:44:20.024Z,99300.00
2023-04-15T07:47:23.702Z,99297.56
2023-04-15T07:50:27.409Z,99304.97
2023-04-15T07:53:33.590Z,99310.28
2023-04-15T07:56:45.960Z,99304.91
2023-04-15T07:59:50.283Z,99311.22
2023-04-15T08:02:55.307Z,99306.75
2023-04-15T08:05:59.612Z,99299.34
2023-04-15T08:09:03.947Z,99293.25
2023-04-15T08:12:13.616Z,99292.28
2023-04-15T08:15:17.687Z,99285.69
2023-04-15T08:18:21.746Z,99290.38
2023-04-15T08:21:25.513Z,99298.03
2023-04-15T08:24:28.648Z,99288.47
2023-04-15T08:27:32.783Z,99288.72
2023-04-15T08:30:35.932Z,99303.53
2023-04-15T08:33:43.230Z,99300.06
2023-04-15T08:36:47.907Z,99305.72
2023-04-15T08:39:51.182Z,99306.25
2023-04-15T08:42:57.409Z,99309.78
2023-04-15T08:46:02.448Z,99314.56
2023-04-15T08:49:07.523Z,99316.88
2023-04-15T08:52:13.293Z,99309.13
2023-04-15T08:55:16.992Z,99314.06
2023-04-15T08:58:23.538Z,99311.44
2023-04-15T09:01:27.696Z,99310.28
2023-04-15T09:04:32.279Z,99317.31
2023-04-15T09:07:38.084Z,99313.09
2023-04-15T09:10:40.916Z,99317.16
2023-04-15T09:13:44.455Z,99318.31
2023-04-15T09:17:01.677Z,99318.16
2023-04-15T09:20:13.858Z,99315.94
2023-04-15T09:23:19.610Z,99321.47
2023-04-15T09:26:31.507Z,99324.16
2023-04-15T09:29:35.019Z,99321.56
2023-04-15T09:32:49.451Z,99318.38
2023-04-15T09:36:06.319Z,99313.03
2023-04-15T09:39:10.525Z,99316.09
2023-04-15T09:42:16.087Z,99322.66
2023-04-15T09:45:19.559Z,99322.75
2023-04-15T09:48:24.698Z,99329.25
2023-04-15T09:51:35.644Z,99324.88
2023-04-15T09:54:39.796Z,99326.12
2023-04-15T09:57:43.301Z,99323.78
2023-04-15T10:00:48.954Z,99325.50
2023-04-15T10:03:53.958Z,99331.91
2023-04-15T10:06:57.924Z,99323.47
2023-04-15T10:10:04.700Z,99328.97
2023-04-15T10:13:09.753Z,99327.91
2023-04-15T10:16:18.733Z,99334.31
2023-04-15T10:19:28.406Z,99337.69
2023-04-15T10:22:34.061Z,99350.12
2023-04-15T10:25:45.037Z,99348.13
2023-04-15T10:28:49.284Z,99341.78
2023-04-15T10:31:53.009Z,99348.47
2023-04-15T10:34:58.042Z,99348.31
2023-04-15T10:38:03.147Z,99353.34
2023-04-15T10:41:20.203Z,99344.00
2023-04-15T10:44:26.663Z,99345.53
2023-04-15T10:47:30.401Z,99350.59
2023-04-15T10:50:36.215Z,99362.50
2023-04-15T10:53:40.937Z,99354.84
2023-04-15T10:56:44.888Z,99359.41
2023-04-15T11:00:05.372Z,99363.84
2023-04-15T11:03:10.208Z,99368.53
2023-04-15T11:06:13.381Z,99368.22
2023-04-15T11:09:32.672Z,99374.78
2023-04-15T11:12:39.659Z,99380.69
2023-04-15T11:15:43.962Z,99370.94
2023-04-15T11:19:05.298Z,99376.47
2023-04-15T11:22:13.514Z,99378.50
2023-04-15T11:25:29.933Z,99367.50
2023-04-15T11:28:33.982Z,99371.00
2023-04-15T11:31:36.952Z,99370.97
2023-04-15T11:34:39.798Z,99361.84
2023-04-15T11:37:43.010Z,99358.88
2023-04-15T11:40:47.637Z,99360.00
2023-04-15T11:43:51.758Z,99360.97
2023-04-15T11:46:58.727Z,99370.94
2023-04-15T11:50:17.806Z,99375.78
2023-04-15T11:53:22.218Z,99370.25
2023-04-15T11:56:28.080Z,99380.16
2023-04-15T11:59:45.367Z,99376.84
2023-04-15T12:02:52.593Z,99385.16
2023-04-15T12:06:07.149Z,99381.88
2023-04-15T12:09:12.804Z,99387.66
2023-04-15T12:12:17.237Z,99372.66
2023-04-15T12:15:25.256Z,99373.25
2023-04-15T12:18:31.650Z,99380.56
2023-04-15T12:21:39.258Z,99379.31
2023-04-15T12:24:44.876Z,99374.47
2023-04-15T12:27:52.790Z,99383.47
2023-04-15T12:30:55.986Z,99376.66
2023-04-15T12:34:01.725Z,99381.66
2023-04-15T12:37:07.823Z,99379.53
2023-04-15T12:40:10.995Z,99386.09
2023-04-15T12:43:14.507Z,99382.16
2023-04-15T12:46:17.742Z,99388.16
2023-04-15T12:49:25.376Z,99399.03
2023-04-15T12:52:29.512Z,99389.94
2023-04-15T12:55:32.679Z,99391.97
2023-04-15T12:58:37.128Z,99398.41
2023-04-15T13:01:40.796Z,99397.97
2023-04-15T13:04:44.002Z,99401.63
2023-04-15T13:07:47.542Z,99398.78
2023-04-15T13:10:50.786Z,99394.22
2023-04-15T13:13:53.902Z,99408.69
2023-04-15T13:16:58.965Z,99401.03
2023-04-15T13:20:02.071Z,99406.50
2023-04-15T13:23:04.900Z,99401.25
2023-04-15T13:26:08.095Z,99405.91
2023-04-15T13:29:12.232Z,99405.63
2023-04-15T13:32:15.251Z,99401.50
2023-04-15T13:35:18.490Z,99402.25
2023-04-15T13:38:22.367Z,99402.75
2023-04-15T13:41:24.880Z,99407.81
2023-04-15T13:44:27.774Z,99405.16
2023-04-15T13:47:31.264Z,99409.16
2023-04-15T13:50:34.340Z,99409.72
2023-04-15T13:53:39.583Z,99422.09
2023-04-15T13:56:44.427Z,99416.81
2023-04-15T13:59:47.601Z,99413.97
2023-04-15T14:02:51.153Z,99409.94
2023-04-15T14:05:56.883Z,99418.72
2023-04-15T14:09:00.172Z,99419.25
2023-04-15T14:12:03.174Z,99429.56
2023-04-15T14:15:06.166Z,99418.50
2023-04-15T14:18:09.762Z,99420.56
2023-04-15T14:21:12.932Z,99429.66
2023-04-15T14:24:17.399Z,99430.72
2023-04-15T14:27:20.896Z,99438.41
2023-04-15T14:30:24.056Z,99444.13
2023-04-15T14:33:27.372Z,99442.41
2023-04-15T14:36:30.646Z,99444.44
2023-04-15T14:39:34.140Z,99449.53
2023-04-15T14:42:37.650Z,99448.56
2023-04-15T14:45:43.628Z,99445.78
2023-04-15T14:48:48.470Z,99454.66
2023-04-15T14:51:51.353Z,99454.56
2023-04-15T14:54:53.816Z,99461.78
2023-04-15T14:57:56.490Z,99451.44
2023-04-15T15:00:59.999Z,99453.22
2023-04-15T15:04:03.094Z,99453.06
2023-04-15T15:07:06.477Z,99455.44
2023-04-15T15:10:09.803Z,99453.34
2023-04-15T15:13:13.109Z,99454.09
2023-04-15T15:16:16.516Z,99466.94
2023-04-15T15:19:19.087Z,99464.34
2023-04-15T15:22:21.875Z,99457.72
2023-04-15T15:25:24.625Z,99480.03
2023-04-15T15:28:27.812Z,99469.44
2023-04-15T15:31:30.389Z,99477.81
2023-04-15T15:34:33.021Z,99482.09
2023-04-15T15:37:36.714Z,99476.47
2023-04-15T15:40:39.964Z,99488.16
2023-04-15T15:43:42.861Z,99489.41
2023-04-15T15:46:46.318Z,99502.72
2023-04-15T15:49:49.561Z,99511.13
2023-04-15T15:52:52.550Z,99510.88
2023-04-15T15:55:55.863Z,99511.53
2023-04-15T15:58:58.469Z,99519.09
2023-04-15T16:02:03.070Z,99526.09
2023-04-15T16:05:07.642Z,99530.72
2023-04-15T16:08:11.254Z,99527.91
2023-04-15T16:11:19.368Z,99534.59
2023-04-15T16:14:22.464Z,99527.75
2023-04-15T16:17:26.647Z,99526.66
2023-04-15T16:20:29.579Z,99529.59
2023-04-15T16:23:32.064Z,99529.84
2023-04-15T16:26:34.172Z,99525.66
2023-04-15T16:29:37.258Z,99523.78
2023-04-15T16:32:39.712Z,99519.59
2023-04-15T16:35:42.334Z,99510.25
2023-04-15T16:38:48.835Z,99521.63
2023-04-15T16:41:51.117Z,99524.69
2023-04-15T16:44:53.268Z,99537.09
2023-04-15T16:47:56.972Z,99537.66
2023-04-15T16:51:00.187Z,99544.66
2023-04-15T16:54:02.302Z,99543.25
2023-04-15T16:57:04.420Z,99556.53
2023-04-15T17:00:07.426Z,99567.06
2023-04-15T17:03:10.025Z,99569.66
2023-04-15T17:06:12.365Z,99569.59
2023-04-15T17:09:14.757Z,99575.63
2023-04-15T17:12:17.204Z,99575.72
2023-04-15T17:15:20.716Z,99585.06
2023-04-15T17:18:23.304Z,99590.66
2023-04-15T17:21:26.400Z,99590.09
2023-04-15T17:24:29.707Z,99599.13
2023-04-15T17:27:32.793Z,99594.28
2023-04-15T17:30:36.204Z,99603.50
2023-04-15T17:34:01.072Z,99606.50
2023-04-15T17:37:02.365Z,99607.81
2023-04-15T17:40:08.025Z,99610.91
2023-04-15T17:43:11.700Z,99613.59
2023-04-15T17:46:14.599Z,99618.31
2023-04-15T17:49:17.378Z,99622.03
2023-04-15T17:52:20.872Z,99623.69
2023-04-15T17:55:25.007Z,99626.63
2023-04-15T17:58:28.697Z,99634.81
2023-04-15T18:01:31.094Z,99635.28
2023-04-15T18:04:33.928Z,99635.66
2023-04-15T18:07:37.256Z,99639.88
2023-04-15T18:10:41.813Z,99642.91
2023-04-15T18:13:44.090Z,99638.19
2023-04-15T18:16:47.144Z,99649.06
2023-04-15T18:19:50.489Z,99645.00
2023-04-15T18:22:53.370Z,99658.03
2023-04-15T18:25:58.678Z,99663.09
2023-04-15T18:29:02.223Z,99663.31
2023-04-15T18:32:05.162Z,99666.37
2023-04-15T18:35:08.195Z,99669.09
2023-04-15T18:38:11.410Z,99680.66
2023-04-15T18:41:15.266Z,99684.41
2023-04-15T18:44:19.293Z,99698.13
2023-04-15T18:47:22.577Z,99697.53
2023-04-15T18:50:26.338Z,99706.16
2023-04-15T18:53:29.397Z,99703.66
2023-04-15T18:56:32.120Z,99714.62
2023-04-15T18:59:36.487Z,99718.72
2023-04-15T19:02:39.959Z,99715.72
2023-04-15T19:05:43.709Z,99718.75
2023-04-15T19:08:48.340Z,99722.75
2023-04-15T19:11:51.683Z,99731.47
2023-04-15T19:14:54.603Z,99735.97
2023-04-15T19:17:59.455Z,99743.75
2023-04-15T19:21:05.487Z,99748.09
2023-04-15T19:24:09.744Z,99746.53
2023-04-15T19:27:12.295Z,99756.47
2023-04-15T19:30:14.790Z,99757.59
2023-04-15T19:33:17.970Z,99755.00
2023-04-15T19:36:22.734Z,99760.91
2023-04-15T19:39:29.658Z,99763.41
2023-04-15T19:42:35.310Z,99766.94
2023-04-15T19:45:38.594Z,99777.94
2023-04-15T19:48:41.863Z,99771.81
2023-04-15T19:51:45.527Z,99772.66
2023-04-15T19:54:49.076Z,99777.03
2023-04-15T19:57:52.945Z,99783.66
2023-04-15T20:00:56.210Z,99791.22
2023-04-15T20:04:00.304Z,99780.97
2023-04-15T20:07:05.884Z,99779.28
2023-04-15T20:10:13.324Z,99790.53
2023-04-15T20:13:16.900Z,99791.97
2023-04-15T20:16:19.617Z,99785.84
2023-04-15T20:19:22.571Z,99794.47
2023-04-15T20:22:27.297Z,99804.13
2023-04-15T20:25:30.346Z,99804.97
2023-04-15T20:28:37.768Z,99794.47
2023-04-15T20:31:42.315Z,99785.94
2023-04-15T20:34:48.429Z,99796.44
2023-04-15T20:37:52.145Z,99796.44
2023-04-15T20:40:55.535Z,99797.28
2023-04-15T20:43:59.873Z,99800.41
2023-04-15T20:47:04.144Z,99800.50
2023-04-15T20:50:09.609Z,99798.09
2023-04-15T20:53:13.545Z,99804.03
2023-04-15T20:56:20.120Z,99812.53
2023-04-15T20:59:24.546Z,99810.13
2023-04-15T21:02:28.916Z,99816.38
2023-04-15T21:05:32.884Z,99820.63
2023-04-15T21:08:37.512Z,99823.66
2023-04-15T21:11:57.450Z,99829.91
2023-04-15T21:15:03.783Z,99834.28
2023-04-15T21:18:07.990Z,99843.03
2023-04-15T21:21:12.725Z,99843.84
2023-04-15T21:24:16.726Z,99841.13
2023-04-15T21:27:21.738Z,99857.88
2023-04-15T21:30:27.482Z,99853.81
2023-04-15T21:33:31.502Z,99853.31
2023-04-15T21:36:35.869Z,99851.13
2023-04-15T21:39:40.084Z,99863.37
2023-04-15T21:42:44.073Z,99860.06
2023-04-15T21:46:21.006Z,99863.06
2023-04-15T21:49:10.829Z,99858.19
2023-04-15T21:52:14.229Z,99861.63
2023-04-15T21:55:19.065Z,99874.81
2023-04-15T21:58:21.778Z,99866.41
2023-04-15T22:01:25.996Z,99876.06
2023-04-15T22:04:29.881Z,99874.31
2023-04-15T22:07:32.768Z,99875.53
2023-04-15T22:10:38.049Z,99877.22
2023-04-15T22:13:41.758Z,99880.41
2023-04-15T22:16:44.961Z,99884.56
2023-04-15T22:19:48.661Z,99878.06
2023-04-15T22:22:54.214Z,99879.91
2023-04-15T22:25:58.295Z,99885.31
2023-04-15T22:29:01.796Z,99883.66
2023-04-15T22:32:04.786Z,99884.56
2023-04-15T22:35:08.250Z,99888.53
2023-04-15T22:38:12.135Z,99881.78
2023-04-15T22:41:15.811Z,99884.38
2023-04-15T22:44:19.755Z,99884.50
2023-04-15T22:47:22.891Z,99884.16
2023-04-15T22:50:26.860Z,99891.44
2023-04-15T22:53:31.052Z,99895.50
2023-04-15T22:56:34.457Z,99891.34
2023-04-15T22:59:38.056Z,99890.31
2023-04-15T23:02:41.263Z,99894.34
2023-04-15T23:05:46.609Z,99894.87
2023-04-15T23:08:51.668Z,99895.19
2023-04-15T23:11:57.187Z,99893.53
2023-04-15T23:15:00.080Z,99895.72
2023-04-15T23:18:03.979Z,99894.87
2023-04-15T23:21:07.842Z,99892.91
2023-04-15T23:24:10.723Z,99889.28
2023-04-15T23:27:14.122Z,99894.87
2023-04-15T23:30:17.488Z,99893.22
2023-04-15T23:33:20.891Z,99903.19
2023-04-15T23:36:24.426Z,99898.94
2023-04-15T23:39:27.916Z,99906.75
2023-04-15T23:42:30.725Z,99912.38
2023-04-15T23:45:34.522Z,99911.94
2023-04-15T23:48:38.123Z,99915.16
2023-04-15T23:51:41.318Z,99909.75
2023-04-15T23:54:44.208Z,99907.38
2023-04-15T23:57:48.434Z,99915.53
